• Join FlightAware (Why Join?)
  • Login
  • US Flag 
05:19AM EDT


 

Airport Tracker/Info


-or-


 

Live Flight TrackerFlight Track Log ✈ UAL481 ✈ 25-Jun-2013 ✈ KALB - KORD

Flight Track Log - Related Links

Times and Time Zones

All times are in EDT time to prevent confusion due to time zone crossing. See the UAL481 flight status page for this flight to view local times or setup timezone preferences in your user account.

Time Position Orientation Groundspeed Altitude Reporting Facility
EDT Latitude Longitude Course Direction KTS MPH feet Rate Location/Type
08:46PM 42.7297 -73.8081 282° West 141 162 1,100  Level Boston Center
08:47PM 42.7311 -73.8647 272° West 209 241 3,500 2,160 Climbing Boston Center
08:48PM 42.8106 -74.2084 284° West  Level FlightAware Approximate
08:48PM 42.7889 -73.9083 331° Northwest 221 254 6,500  Level Boston Center
08:49PM 42.8355 -74.3464 283° West  Level FlightAware Approximate
08:49PM 42.8508 -73.9581 330° Northwest 240 276 9,600  Level Boston Center
08:50PM 42.8587 -74.4851 283° West  Level FlightAware Approximate
08:50PM 42.9106 -74.0106 327° Northwest 268 308 10,900  Level Boston Center
08:51PM 42.8934 -74.6132 282° West  Level FlightAware Approximate
08:51PM 42.9775 -74.1344 306° West 334 384 12,800  Level Boston Center
08:52PM 43.0344 -74.2381 307° West 388 447 16,100 3,000 Climbing Boston Center
08:53PM 43.1114 -74.3656 310° West 388 447 18,800 1,680 Climbing Boston Center
08:54PM 43.1489 -74.4947 292° West 398 458 19,500 1,080 Climbing Boston Center
08:55PM 43.1606 -74.6517 276° West 405 466 21,200 1,320 Climbing Boston Center
08:56PM 43.1772 -74.8517 277° West 421 484 22,500 1,020 Climbing Boston Center
08:57PM 43.1883 -75.0144 275° West 433 498 23,300 720 Climbing Boston Center
08:58PM 43.2053 -75.1833 278° West 444 511 24,000 660 Climbing Boston Center
08:59PM 43.2217 -75.3608 277° West 456 525 24,700 840 Climbing Boston Center
09:00PM 43.2397 -75.5497 278° West 456 525 25,700 960 Climbing Boston Center
09:01PM 43.2308 -75.7175 266° West 456 525 26,700 1,020 Climbing Boston Center
09:02PM 43.2150 -75.8933 263° West 461 531 27,800 1,140 Climbing Boston Center
09:03PM 43.1994 -76.0606 263° West 461 531 29,000 1,140 Climbing Boston Center
09:04PM 43.1836 -76.2306 263° West 461 531 30,100 1,200 Climbing Boston Center
09:05PM 43.1650 -76.4242 263° West 440 506 31,800 1,260 Climbing Cleveland Center
09:06PM 43.1497 -76.5847 263° West 435 501 33,000 1,440 Climbing Cleveland Center
09:07PM 43.1369 -76.7619 264° West 429 494 34,700 1,500 Climbing Cleveland Center
09:08PM 43.1442 -76.9153 274° West 423 487 36,000 600 Climbing Cleveland Center
09:09PM 43.1511 -77.0742 273° West 423 487 36,000  Level Cleveland Center
09:10PM 43.1578 -77.2306 273° West 418 481 36,000  Level Cleveland Center
09:11PM 43.1642 -77.3839 273° West 418 481 36,000  Level Cleveland Center
09:12PM 43.1728 -77.5428 274° West 418 481 36,000  Level Cleveland Center
09:13PM 43.1767 -77.6992 272° West 418 481 36,000  Level Cleveland Center
09:14PM 43.1847 -77.8583 274° West 418 481 36,000  Level Cleveland Center
09:15PM 43.1883 -78.0147 272° West 418 481 36,000  Level Cleveland Center
09:16PM 43.1939 -78.1742 273° West 418 481 36,000  Level Cleveland Center
09:17PM 43.1992 -78.3333 273° West 418 481 36,000  Level Cleveland Center
09:18PM 43.2042 -78.4928 273° West 418 481 36,000  Level Cleveland Center
09:19PM 43.2089 -78.6522 272° West 418 481 36,000  Level Cleveland Center
09:20PM 43.2136 -78.8114 272° West 418 481 36,000  Level Cleveland Center
09:21PM 43.2167 -78.9000 273° West 420 483 36,000  Level Toronto Center
09:22PM 43.2167 -79.0667 270° West 420 483 36,000  Level Toronto Center
09:23PM 43.2167 -79.2500 270° West 420 483 36,000  Level Toronto Center
09:24PM 43.2167 -79.3833 270° West 430 495 36,000  Level Toronto Center
09:25PM 43.2167 -79.5667 270° West 430 495 36,000  Level Toronto Center
09:26PM 43.2333 -79.7167 279° West 430 495 36,000  Level Toronto Center
09:27PM 43.2333 -79.8833 270° West 430 495 36,000  Level Toronto Center
09:28PM 43.2333 -80.0500 270° West 430 495 36,000  Level Toronto Center
09:29PM 43.2333 -80.2000 270° West 430 495 36,000  Level Toronto Center
09:30PM 43.2333 -80.3667 270° West 430 495 36,000  Level Toronto Center
09:31PM 43.2500 -80.5333 278° West 410 472 36,000  Level Toronto Center
09:32PM 43.2500 -80.6833 270° West 410 472 36,000  Level Toronto Center
09:33PM 43.2333 -80.8167 260° West 410 472 36,000  Level Toronto Center
09:34PM 43.2333 -81.0000 270° West 410 472 36,000  Level Toronto Center
09:35PM 43.2333 -81.1500 270° West 410 472 36,000  Level Toronto Center
09:36PM 43.2500 -81.3000 279° West 410 472 36,000  Level Toronto Center
09:37PM 43.2500 -81.4333 270° West 390 449 36,000  Level Toronto Center
09:38PM 43.2500 -81.6000 270° West 390 449 36,000  Level Toronto Center
09:39PM 43.2500 -81.7667 270° West 400 460 36,000  Level Toronto Center
09:40PM 43.2500 -81.9000 270° West 390 449 36,000  Level Toronto Center
09:41PM 43.2333 -82.0667 262° West 390 449 36,000  Level Toronto Center
09:42PM 43.2500 -82.2000 280° West 390 449 36,000  Level Toronto Center
09:43PM 43.2500 -82.3500 270° West 390 449 36,000  Level Toronto Center
09:44PM 43.2500 -82.5000 270° West 390 449 36,000 -60 Level Toronto Center
09:45PM 43.2333 -82.6500 261° West 380 437 35,900  Descending Toronto Center
09:46PM 43.2167 -82.7833 260° West 380 437 36,000  Climbing Toronto Center
09:47PM 43.1833 -82.9333 253° West 380 437 36,000 -120 Level Toronto Center
09:48PM 43.1500 -83.0333 245° Southwest 370 426 35,800 -540 Descending Toronto Center
09:49PM 43.1167 -83.2000 255° West 390 449 35,000 -840 Descending Toronto Center
09:50PM 43.0667 -83.3333 243° Southwest 410 472 34,200 -840 Descending Toronto Center
09:51PM 43.0333 -83.4833 253° West 410 472 33,400 -840 Descending Toronto Center
09:52PM 43.0000 -83.6167 251° West 420 483 32,600 -720 Descending Toronto Center
09:53PM 42.9500 -83.7833 248° West 420 483 32,000 -300 Descending Toronto Center
09:54PM 42.9492 -83.9269 270° West 418 481 32,000  Level Chicago Center
09:55PM 42.9344 -84.0800 263° West 410 472 32,000  Level Chicago Center
09:56PM 42.9197 -84.2336 263° West 410 472 32,000  Level Chicago Center
09:57PM 42.8997 -84.4222 262° West 419 482 32,000  Level Chicago Center
09:58PM 42.8842 -84.5803 262° West 420 483 32,000  Level Chicago Center
09:59PM 42.8683 -84.7356 262° West 417 480 32,000  Level Chicago Center
10:00PM 42.8517 -84.8911 262° West 415 478 32,000 -300 Level Chicago Center
10:01PM 42.8358 -85.0472 262° West 416 479 31,400 -1,200 Descending Chicago Center
10:02PM 42.8181 -85.2064 261° West 423 487 29,600 -2,460 Descending Chicago Center
10:03PM 42.8156 -85.3725 269° West 439 505 26,400 -2,040 Descending Chicago Center
10:05PM 42.8272 -85.5294 276° West 424 488 25,500 -1,080 Descending Chicago Center
10:06PM 42.8328 -85.7017 273° West 390 449 24,300 -1,080 Descending Chicago Center
10:07PM 42.7917 -85.8294 246° West 370 426 23,300 -1,080 Descending Chicago Center
10:08PM 42.7536 -85.9464 246° West 347 399 22,100 -1,500 Descending Chicago Center
10:09PM 42.7161 -86.0589 246° West 329 379 20,200 -1,080 Descending Chicago Center
10:10PM 42.6792 -86.1703 246° West 324 373 20,000 -120 Descending Chicago Center
10:11PM 42.6447 -86.2814 247° West 320 368 20,000 -300 Level Chicago Center
10:12PM 42.6553 -86.4003 277° West 314 361 19,400 -1,260 Descending Chicago Center
10:13PM 42.6669 -86.5172 278° West 314 361 17,500 -1,680 Descending Chicago Center
10:14PM 42.6786 -86.6306 278° West 305 351 16,000 -1,200 Descending Chicago Center
10:15PM 42.6881 -86.7439 277° West 303 349 15,100 -1,500 Descending Chicago Center
10:16PM 42.6828 -86.8758 267° West 307 353 13,000 -1,800 Descending Chicago Center
10:17PM 42.6336 -86.9681 234° Southwest 303 349 11,500 -1,020 Descending Chicago Center
10:18PM 42.5931 -87.0617 240° Southwest 292 336 11,000 -780 Descending Chicago Center
10:19PM 42.5519 -87.1536 239° Southwest 288 331 10,000 -1,020 Descending Chicago Center
10:20PM 42.5067 -87.2383 234° Southwest 282 325 9,000 -540 Descending Chicago Center
10:21PM 42.4592 -87.3217 232° Southwest 282 325 9,000 -180 Level Chicago Center
10:22PM 42.4089 -87.4086 232° Southwest 275 316 8,700 -1,020 Descending Chicago Center
10:23PM 42.3575 -87.5006 233° Southwest 275 316 7,000 -1,320 Descending Chicago Center
10:24PM 42.3131 -87.5625 226° Southwest 266 306 6,000 -540 Descending Chicago Center
10:25PM 42.2372 -87.5622 180° South 280 322 6,000  Level Chicago Center
10:26PM 42.1478 -87.5472 173° South 268 308 6,000 -240 Level Chicago Center
10:27PM 42.0892 -87.5372 173° South 217 250 5,600 -720 Descending Chicago Center
10:28PM 42.0469 -87.4928 142° Southeast 226 260 4,600 -840 Descending Chicago Center
10:29PM 42.0161 -87.4547 137° Southeast 205 236 4,000 -300 Descending Chicago Center
10:30PM 41.9844 -87.5067 231° Southwest 203 234 4,100  Climbing Chicago Center
10:31PM 41.9828 -87.5761 268° West 184 212 4,000 -60 Descending Chicago Center
10:32PM 41.9839 -87.6428 271° West 180 207 4,000 -540 Level Chicago Center
10:33PM 41.9844 -87.7256 271° West 184 212 3,000 -1,020 Descending Chicago Center
10:34PM 41.9842 -87.7933 270° West 184 212 2,000 -1,020 Descending Chicago Center